Time;durP1;ratioP1;P1;durP2;ratioP2;P2;SDS_P1;SDS_P2;PMS_P1;PMS_P2;Temp;Humidity;BMP_temperature;BMP_pressure;BME280_temperature;BME280_humidity;BME280_pressure;Samples;Min_cycle;Max_cycle;Signal;HPM_P1;HPM_P2
2021/11/21 00:01:52;;;;;;;16.25;8.30;;;9.20;99.90;;;;;;5140544;27;20073;-70
2021/11/21 00:04:18;;;;;;;12.18;8.23;;;9.30;99.90;;;;;;5120899;27;20047;-69
2021/11/21 00:06:43;;;;;;;15.82;9.20;;;9.20;99.90;;;;;;5136029;27;20039;-69
2021/11/21 00:09:09;;;;;;;17.02;8.77;;;9.20;99.90;;;;;;5139200;27;20479;-70
2021/11/21 00:11:35;;;;;;;19.83;9.38;;;9.20;99.90;;;;;;5146648;27;20039;-70
2021/11/21 00:14:02;;;;;;;14.55;8.52;;;9.20;99.90;;;;;;5102017;27;20507;-70
2021/11/21 00:16:28;;;;;;;18.40;9.20;;;9.20;99.90;;;;;;5127351;27;20159;-70
2021/11/21 00:18:54;;;;;;;17.13;9.02;;;9.20;99.90;;;;;;5126114;27;20099;-70
2021/11/21 00:21:20;;;;;;;15.80;8.68;;;9.30;99.90;;;;;;5111667;28;20047;-70
2021/11/21 00:23:46;;;;;;;13.27;9.63;;;9.20;99.90;;;;;;5123187;27;20074;-70
2021/11/21 00:26:12;;;;;;;15.07;8.80;;;9.20;99.90;;;;;;5128130;27;20039;-70
2021/11/21 00:28:38;;;;;;;12.52;7.97;;;9.20;99.90;;;;;;5146637;27;20053;-70
2021/11/21 00:31:04;;;;;;;14.32;8.63;;;9.20;99.90;;;;;;5124433;27;20479;-69
2021/11/21 00:33:30;;;;;;;16.42;8.55;;;9.20;99.90;;;;;;5146397;27;20043;-70
2021/11/21 00:35:56;;;;;;;14.85;8.18;;;9.20;99.90;;;;;;5125218;27;20043;-70
2021/11/21 00:38:22;;;;;;;15.88;8.07;;;9.30;99.90;;;;;;5121596;27;20364;-70
2021/11/21 00:40:48;;;;;;;17.23;8.85;;;9.30;99.90;;;;;;5125322;27;20106;-70
2021/11/21 00:43:13;;;;;;;13.15;8.52;;;9.20;99.90;;;;;;5115321;27;20075;-70
2021/11/21 00:45:39;;;;;;;14.90;9.13;;;9.30;99.90;;;;;;5137499;27;20050;-70
2021/11/21 00:48:05;;;;;;;16.90;10.18;;;9.30;99.90;;;;;;5119947;27;20057;-70
2021/11/21 00:50:32;;;;;;;22.15;11.18;;;9.30;99.90;;;;;;5141836;27;20078;-70
2021/11/21 00:53:02;;;;;;;18.88;10.77;;;9.30;99.90;;;;;;5122888;28;20495;-70
2021/11/21 00:56:01;;;;;;;18.40;10.52;;;9.20;99.90;;;;;;5125167;28;20051;-70
2021/11/21 00:58:24;;;;;;;18.52;11.50;;;9.30;99.90;;;;;;5123330;28;20047;-70
2021/11/21 01:00:50;;;;;;;21.25;13.00;;;9.20;99.90;;;;;;5123665;28;20046;-70
2021/11/21 01:03:19;;;;;;;21.65;12.40;;;9.20;99.90;;;;;;5125302;28;20126;-70
2021/11/21 01:05:46;;;;;;;21.08;12.65;;;9.20;99.90;;;;;;5123856;28;20073;-70
2021/11/21 01:08:12;;;;;;;20.83;14.10;;;9.20;99.90;;;;;;5124732;28;20050;-70
2021/11/21 01:10:39;;;;;;;19.15;13.48;;;9.20;99.90;;;;;;5123871;28;20083;-70
2021/11/21 01:13:06;;;;;;;22.10;13.88;;;9.30;99.90;;;;;;5141892;27;20054;-70
2021/11/21 01:15:32;;;;;;;26.73;14.35;;;9.10;99.90;;;;;;5127025;27;20040;-70
2021/11/21 01:17:58;;;;;;;23.48;15.52;;;9.10;99.90;;;;;;5131260;27;20069;-70
2021/11/21 01:20:27;;;;;;;23.40;15.68;;;9.20;99.90;;;;;;5100630;28;20381;-70
2021/11/21 01:22:54;;;;;;;24.97;15.20;;;9.20;99.90;;;;;;5126866;28;20080;-70
2021/11/21 01:25:20;;;;;;;23.90;15.73;;;9.20;99.90;;;;;;5139586;28;20780;-69
2021/11/21 01:27:46;;;;;;;25.50;15.80;;;9.10;99.90;;;;;;5126512;28;20081;-69
2021/11/21 01:30:17;;;;;;;23.48;14.85;;;9.10;99.90;;;;;;5143103;28;20035;-70
2021/11/21 01:32:43;;;;;;;22.10;15.13;;;9.10;99.90;;;;;;5126998;28;20043;-70
2021/11/21 01:35:09;;;;;;;26.58;16.23;;;9.10;99.90;;;;;;5127170;28;20057;-69
2021/11/21 01:37:35;;;;;;;21.98;15.43;;;9.10;99.90;;;;;;5145669;28;20035;-70
2021/11/21 01:40:02;;;;;;;22.58;15.02;;;9.10;99.90;;;;;;5107093;28;20081;-70
2021/11/21 01:42:28;;;;;;;23.23;15.23;;;9.10;99.90;;;;;;5134034;28;20055;-70
2021/11/21 01:44:53;;;;;;;26.48;14.77;;;9.10;99.90;;;;;;5112575;28;20047;-69
2021/11/21 01:47:19;;;;;;;20.10;14.80;;;9.10;99.90;;;;;;5140742;28;20051;-70
2021/11/21 01:49:45;;;;;;;21.08;14.02;;;9.10;99.90;;;;;;5118462;28;20058;-70
2021/11/21 01:52:11;;;;;;;22.77;15.20;;;9.20;99.90;;;;;;5138012;28;20069;-69
2021/11/21 01:54:37;;;;;;;23.35;14.65;;;9.20;99.90;;;;;;5128784;28;20035;-70
2021/11/21 01:57:03;;;;;;;23.40;14.48;;;9.20;99.90;;;;;;5124626;28;20052;-70
2021/11/21 01:59:29;;;;;;;22.58;15.00;;;9.10;99.90;;;;;;5124297;28;20047;-70
2021/11/21 02:01:55;;;;;;;24.55;14.98;;;9.20;99.90;;;;;;5123382;28;20047;-70
2021/11/21 02:04:21;;;;;;;19.95;14.13;;;9.10;99.90;;;;;;5125874;28;20063;-69
2021/11/21 02:06:47;;;;;;;20.27;13.82;;;9.10;99.90;;;;;;5126525;28;20452;-70
2021/11/21 02:09:13;;;;;;;23.52;13.63;;;9.20;99.90;;;;;;5126329;28;20055;-70
2021/11/21 02:11:39;;;;;;;19.30;14.30;;;9.10;99.90;;;;;;5126665;28;20070;-70
2021/11/21 02:14:05;;;;;;;21.48;13.95;;;9.20;99.90;;;;;;5139571;28;20039;-70
2021/11/21 02:16:31;;;;;;;24.02;14.45;;;9.10;99.90;;;;;;5126252;28;20100;-70
2021/11/21 02:18:58;;;;;;;20.25;13.25;;;9.10;99.90;;;;;;5111951;28;20048;-70
2021/11/21 02:21:24;;;;;;;19.52;12.18;;;9.20;99.90;;;;;;5104110;28;20119;-70
2021/11/21 02:23:50;;;;;;;20.30;13.13;;;9.20;99.90;;;;;;5124723;28;20479;-70
2021/11/21 02:26:17;;;;;;;20.40;12.90;;;9.20;99.90;;;;;;5124269;28;20048;-70
2021/11/21 02:28:45;;;;;;;21.42;13.15;;;9.20;99.90;;;;;;5106672;28;20051;-70
2021/11/21 02:31:11;;;;;;;22.15;12.55;;;9.20;99.90;;;;;;5146222;27;20039;-70
2021/11/21 02:33:38;;;;;;;26.58;13.70;;;9.20;99.90;;;;;;5129984;27;20096;-70
2021/11/21 02:36:05;;;;;;;20.13;12.25;;;9.20;99.90;;;;;;5129880;27;20069;-70
2021/11/21 02:38:32;;;;;;;17.90;11.48;;;9.10;99.90;;;;;;5118925;28;20051;-70
2021/11/21 02:41:03;;;;;;;21.08;12.10;;;9.10;99.90;;;;;;5113269;28;20453;-70
2021/11/21 02:43:29;;;;;;;21.20;12.73;;;9.10;99.90;;;;;;5147764;27;20226;-70
2021/11/21 02:45:56;;;;;;;20.63;12.88;;;9.20;99.90;;;;;;5130041;27;20031;-70
2021/11/21 02:48:29;;;;;;;23.08;13.02;;;9.20;99.90;;;;;;5147983;27;20047;-69
2021/11/21 02:50:55;;;;;;;20.98;12.80;;;9.10;99.90;;;;;;5146338;27;20070;-70
2021/11/21 02:53:25;;;;;;;22.20;12.13;;;9.20;99.90;;;;;;5118020;27;20048;-70
2021/11/21 02:55:56;;;;;;;12.77;8.00;;;9.10;99.90;;;;;;5129451;27;20088;-70
2021/11/21 02:58:23;;;;;;;9.40;6.03;;;9.10;99.90;;;;;;5129867;27;20075;-70
2021/11/21 03:00:49;;;;;;;9.02;5.55;;;9.10;99.90;;;;;;5130064;27;20046;-69
2021/11/21 03:03:16;;;;;;;7.90;5.07;;;9.10;99.90;;;;;;5147955;27;20054;-70
2021/11/21 03:05:42;;;;;;;6.22;4.00;;;9.10;99.90;;;;;;5147949;27;20043;-70
2021/11/21 03:08:08;;;;;;;5.25;3.53;;;9.10;99.90;;;;;;5129274;27;20054;-69
2021/11/21 03:10:35;;;;;;;4.55;3.28;;;9.20;99.90;;;;;;5129348;27;20047;-70
2021/11/21 03:13:04;;;;;;;5.70;3.20;;;9.20;99.90;;;;;;5129583;27;20075;-70
2021/11/21 03:15:32;;;;;;;5.47;3.50;;;9.20;99.90;;;;;;5118385;27;20409;-69
2021/11/21 03:17:58;;;;;;;5.03;3.50;;;9.20;99.90;;;;;;5145651;27;20060;-70
2021/11/21 03:20:31;;;;;;;5.18;3.45;;;9.20;99.90;;;;;;5119557;27;20046;-70
2021/11/21 03:22:58;;;;;;;3.78;2.53;;;9.20;99.90;;;;;;5147853;27;20047;-69
2021/11/21 03:25:25;;;;;;;4.45;2.30;;;9.20;99.90;;;;;;5129752;27;20043;-69
2021/11/21 03:27:52;;;;;;;3.80;2.35;;;9.20;99.90;;;;;;5147208;27;20050;-69
2021/11/21 03:30:21;;;;;;;2.85;1.90;;;9.20;99.90;;;;;;5134968;27;20476;-69
2021/11/21 03:32:49;;;;;;;3.33;1.83;;;9.20;99.90;;;;;;5126876;28;20070;-70
2021/11/21 03:35:16;;;;;;;4.57;2.17;;;9.20;99.90;;;;;;5125967;28;20056;-69
2021/11/21 03:37:42;;;;;;;6.68;2.25;;;9.20;99.90;;;;;;5125801;27;20044;-69
2021/11/21 03:40:11;;;;;;;5.30;2.60;;;9.10;99.90;;;;;;5146887;27;20039;-70
2021/11/21 03:42:37;;;;;;;3.35;2.50;;;9.20;99.90;;;;;;5108718;28;20039;-69
2021/11/21 03:45:05;;;;;;;4.28;3.00;;;9.10;99.90;;;;;;5126939;28;20507;-70
2021/11/21 03:47:31;;;;;;;5.78;2.90;;;9.10;99.90;;;;;;5126866;28;20078;-69
2021/11/21 03:49:57;;;;;;;6.50;3.17;;;9.10;99.90;;;;;;5126337;28;20095;-70
2021/11/21 03:52:22;;;;;;;7.28;3.58;;;9.00;99.90;;;;;;5114014;27;20044;-70
2021/11/21 03:54:48;;;;;;;5.60;3.15;;;9.00;99.90;;;;;;5107228;28;20179;-70
2021/11/21 03:57:14;;;;;;;6.05;3.30;;;9.00;99.90;;;;;;5132831;27;20044;-70
2021/11/21 03:59:40;;;;;;;4.28;3.00;;;9.00;99.90;;;;;;5113968;27;20076;-70
2021/11/21 04:02:06;;;;;;;5.88;3.22;;;9.00;99.90;;;;;;5147443;27;20122;-70
2021/11/21 04:04:33;;;;;;;5.88;3.47;;;9.00;99.90;;;;;;5106656;28;20047;-70
2021/11/21 04:06:59;;;;;;;5.15;3.25;;;8.90;99.90;;;;;;5096806;28;20043;-70
2021/11/21 04:09:25;;;;;;;5.03;3.20;;;8.90;99.90;;;;;;5113588;28;20044;-70
2021/11/21 04:11:51;;;;;;;5.28;2.85;;;8.90;99.90;;;;;;5137654;27;20054;-70
2021/11/21 04:14:17;;;;;;;6.60;2.85;;;8.90;99.90;;;;;;5124062;27;20035;-70
2021/11/21 04:16:43;;;;;;;4.75;2.55;;;9.00;99.90;;;;;;5123593;28;20407;-70
2021/11/21 04:19:09;;;;;;;5.45;3.03;;;8.90;99.90;;;;;;5121253;28;20044;-69
2021/11/21 04:21:36;;;;;;;6.35;3.08;;;9.00;99.90;;;;;;5117828;27;20047;-70
2021/11/21 04:24:02;;;;;;;5.20;3.13;;;9.00;99.90;;;;;;5145115;27;20065;-70
2021/11/21 04:26:28;;;;;;;5.97;2.60;;;8.90;99.90;;;;;;5145905;27;20063;-70
2021/11/21 04:28:54;;;;;;;5.43;2.78;;;8.90;99.90;;;;;;5121155;27;20039;-70
2021/11/21 04:31:19;;;;;;;5.13;2.70;;;8.90;99.90;;;;;;5130919;27;20096;-70
2021/11/21 04:33:45;;;;;;;4.05;2.97;;;8.90;99.90;;;;;;5117583;27;20487;-70
2021/11/21 04:36:11;;;;;;;5.30;2.80;;;8.90;99.90;;;;;;5111972;28;20563;-70
2021/11/21 04:38:37;;;;;;;5.78;2.72;;;8.90;99.90;;;;;;5145277;27;20047;-70
2021/11/21 04:41:03;;;;;;;7.63;3.40;;;8.80;99.90;;;;;;5119653;28;20220;-70
2021/11/21 04:43:29;;;;;;;6.65;3.40;;;8.70;99.90;;;;;;5140497;27;20066;-70
2021/11/21 04:45:56;;;;;;;7.53;4.15;;;8.80;99.90;;;;;;5124441;27;20471;-70
2021/11/21 04:48:23;;;;;;;6.28;3.10;;;8.70;99.90;;;;;;5141215;27;20045;-70
2021/11/21 04:50:48;;;;;;;9.48;3.20;;;8.70;99.90;;;;;;5122061;28;20043;-69
2021/11/21 04:53:14;;;;;;;8.75;3.60;;;8.80;99.90;;;;;;5122056;27;20104;-70
2021/11/21 04:55:40;;;;;;;7.68;3.70;;;8.70;99.90;;;;;;5107552;28;20077;-70
2021/11/21 04:58:06;;;;;;;9.05;3.42;;;8.80;99.90;;;;;;5142367;27;20043;-70
2021/11/21 05:00:32;;;;;;;7.78;3.47;;;8.80;99.90;;;;;;5137725;27;20058;-70
2021/11/21 05:02:58;;;;;;;10.05;4.00;;;8.80;99.90;;;;;;5144701;27;20046;-70
2021/11/21 05:05:25;;;;;;;8.05;3.58;;;8.80;99.90;;;;;;5120109;28;20047;-70
2021/11/21 05:07:51;;;;;;;8.77;3.72;;;8.80;99.90;;;;;;5143338;27;20078;-70
2021/11/21 05:10:18;;;;;;;6.38;3.30;;;8.90;99.90;;;;;;5120101;27;21409;-70
2021/11/21 05:12:44;;;;;;;6.38;3.20;;;8.80;99.90;;;;;;5113267;28;20047;-70
2021/11/21 05:15:12;;;;;;;12.93;3.15;;;8.90;99.90;;;;;;5139671;27;20039;-70
2021/11/21 05:17:38;;;;;;;8.88;3.60;;;8.80;99.90;;;;;;5136917;27;20035;-70
2021/11/21 05:20:05;;;;;;;8.70;2.78;;;8.80;99.90;;;;;;5111263;28;20122;-70
2021/11/21 05:22:31;;;;;;;9.85;3.08;;;8.80;99.90;;;;;;5140702;27;20486;-70
2021/11/21 05:24:57;;;;;;;9.00;2.60;;;8.80;99.90;;;;;;5141169;28;20044;-70
2021/11/21 05:27:24;;;;;;;7.20;2.70;;;8.80;99.90;;;;;;5104395;28;20052;-70
2021/11/21 05:29:51;;;;;;;9.30;2.85;;;8.80;99.90;;;;;;5102142;28;20067;-70
2021/11/21 05:32:17;;;;;;;7.25;2.60;;;8.80;99.90;;;;;;5104210;28;20529;-70
2021/11/21 05:34:42;;;;;;;9.55;2.20;;;8.80;99.90;;;;;;5124418;28;20457;-70
2021/11/21 05:37:08;;;;;;;8.02;2.17;;;8.80;99.90;;;;;;5123355;28;20039;-69
2021/11/21 05:39:34;;;;;;;8.18;2.30;;;8.80;99.90;;;;;;5106298;28;20044;-70
2021/11/21 05:42:00;;;;;;;8.52;2.13;;;8.80;99.90;;;;;;5105224;28;20048;-70
2021/11/21 05:44:26;;;;;;;8.43;2.42;;;8.80;99.90;;;;;;5104595;28;20051;-70
2021/11/21 05:46:51;;;;;;;7.97;1.98;;;8.70;99.90;;;;;;5087983;28;20043;-70
2021/11/21 05:49:17;;;;;;;11.15;1.98;;;8.80;99.90;;;;;;5108445;28;20495;-70
2021/11/21 05:51:43;;;;;;;8.60;1.73;;;8.80;99.90;;;;;;5124953;28;20075;-70
2021/11/21 05:54:08;;;;;;;10.68;2.10;;;8.70;99.90;;;;;;5099079;28;20112;-70
2021/11/21 05:56:34;;;;;;;9.00;2.13;;;8.80;99.90;;;;;;5105659;28;20073;-70
2021/11/21 05:59:00;;;;;;;8.15;1.80;;;8.70;99.90;;;;;;5102792;28;20082;-70
2021/11/21 06:01:26;;;;;;;8.10;2.03;;;8.70;99.90;;;;;;5105593;28;20666;-69
2021/11/21 06:03:53;;;;;;;9.18;2.20;;;8.70;99.90;;;;;;5107140;28;20036;-70
2021/11/21 06:06:19;;;;;;;12.35;2.00;;;8.70;99.90;;;;;;5129228;28;20111;-70
2021/11/21 06:08:45;;;;;;;5.60;1.58;;;8.70;99.90;;;;;;5103595;28;20058;-70
2021/11/21 06:11:11;;;;;;;20.98;2.75;;;8.60;99.90;;;;;;5127449;28;20526;-69
2021/11/21 06:13:36;;;;;;;9.10;1.50;;;8.70;99.90;;;;;;5127493;28;20069;-69
2021/11/21 06:16:02;;;;;;;6.22;1.60;;;8.60;99.90;;;;;;5108470;28;20039;-70
2021/11/21 06:18:28;;;;;;;10.70;2.35;;;8.60;99.90;;;;;;5127738;28;20047;-70
2021/11/21 06:20:54;;;;;;;15.27;1.90;;;8.60;99.90;;;;;;5127776;28;20104;-70
2021/11/21 06:23:20;;;;;;;11.27;1.58;;;8.60;99.90;;;;;;5127523;28;20099;-70
2021/11/21 06:25:46;;;;;;;10.68;1.75;;;8.60;99.90;;;;;;5127869;28;20043;-70
2021/11/21 06:28:12;;;;;;;12.52;1.75;;;8.50;99.90;;;;;;5103032;28;20149;-70
2021/11/21 06:30:40;;;;;;;12.10;1.75;;;8.40;99.90;;;;;;5120279;28;20039;-70
2021/11/21 06:33:06;;;;;;;11.57;1.40;;;8.40;99.90;;;;;;5100488;28;20039;-70
2021/11/21 06:35:32;;;;;;;11.98;1.90;;;8.30;99.90;;;;;;5120604;28;20049;-70
2021/11/21 06:37:59;;;;;;;9.27;1.48;;;8.40;99.90;;;;;;5104137;28;20055;-70
2021/11/21 06:40:25;;;;;;;9.98;2.22;;;8.30;99.90;;;;;;5114436;28;20035;-70
2021/11/21 06:42:51;;;;;;;9.88;1.40;;;8.30;99.90;;;;;;5120119;28;20058;-70
2021/11/21 06:45:17;;;;;;;16.38;2.28;;;8.20;99.90;;;;;;5109092;28;20555;-70
2021/11/21 06:47:43;;;;;;;11.98;1.98;;;8.10;99.90;;;;;;5126120;28;20500;-70
2021/11/21 06:50:12;;;;;;;11.43;1.70;;;8.10;99.90;;;;;;5101155;28;20103;-70
2021/11/21 06:52:38;;;;;;;11.45;1.40;;;8.00;99.90;;;;;;5100532;28;20040;-70
2021/11/21 06:55:07;;;;;;;11.00;1.85;;;7.90;99.90;;;;;;5124374;28;20043;-70
2021/11/21 06:57:33;;;;;;;14.30;1.83;;;7.80;99.90;;;;;;5127139;28;20052;-70
2021/11/21 07:00:01;;;;;;;9.23;1.70;;;7.80;99.90;;;;;;5096895;28;20078;-70
2021/11/21 07:02:26;;;;;;;10.50;1.83;;;7.80;99.90;;;;;;5113604;28;20415;-69
2021/11/21 07:04:52;;;;;;;9.07;1.63;;;7.70;99.90;;;;;;5123739;28;20047;-70
2021/11/21 07:07:18;;;;;;;8.07;1.40;;;7.60;99.90;;;;;;5073463;28;20043;-62
2021/11/21 07:09:44;;;;;;;10.48;3.00;;;7.70;99.90;;;;;;5120502;28;20051;-62
2021/11/21 07:12:12;;;;;;;7.45;1.40;;;7.50;99.90;;;;;;5124081;28;20039;-62
2021/11/21 07:14:37;;;;;;;18.85;1.83;;;7.40;99.90;;;;;;5124100;28;20040;-63
2021/11/21 07:17:04;;;;;;;11.43;2.00;;;7.40;99.90;;;;;;5117077;28;20070;-63
2021/11/21 07:19:30;;;;;;;8.10;1.27;;;7.40;99.90;;;;;;5120022;28;20052;-62
2021/11/21 07:21:56;;;;;;;13.95;1.50;;;7.30;99.90;;;;;;5117706;28;20075;-62
2021/11/21 07:24:22;;;;;;;8.75;1.73;;;7.30;99.90;;;;;;5120854;28;20040;-63
2021/11/21 07:26:48;;;;;;;11.38;1.92;;;7.30;99.90;;;;;;5130976;27;20146;-63
2021/11/21 07:29:14;;;;;;;8.45;1.98;;;7.30;99.90;;;;;;5118167;27;20047;-63
2021/11/21 07:31:41;;;;;;;10.27;1.40;;;7.30;99.90;;;;;;5114158;27;20080;-63
2021/11/21 07:34:07;;;;;;;10.55;1.85;;;7.20;99.90;;;;;;5145239;27;20103;-63
2021/11/21 07:36:33;;;;;;;8.45;1.40;;;7.20;99.90;;;;;;5116690;28;20044;-63
2021/11/21 07:38:59;;;;;;;15.02;1.95;;;7.20;99.90;;;;;;5136024;27;20051;-63
2021/11/21 07:41:25;;;;;;;10.00;1.50;;;7.10;99.90;;;;;;5142446;27;20126;-65
2021/11/21 07:43:51;;;;;;;11.10;1.52;;;7.20;99.90;;;;;;5125823;27;20604;-65
2021/11/21 07:46:17;;;;;;;14.18;2.20;;;7.10;99.90;;;;;;5142674;27;20042;-65
2021/11/21 07:48:43;;;;;;;11.27;1.88;;;7.10;99.90;;;;;;5125340;27;20044;-65
2021/11/21 07:51:09;;;;;;;13.73;1.77;;;7.10;99.90;;;;;;5140821;27;20036;-65
2021/11/21 07:53:35;;;;;;;8.93;2.05;;;7.10;99.90;;;;;;5124285;27;20047;-65
2021/11/21 07:56:01;;;;;;;15.02;2.00;;;7.00;99.90;;;;;;5140784;27;20043;-65
2021/11/21 07:58:28;;;;;;;11.02;1.80;;;7.00;99.90;;;;;;5146311;27;20075;-65
2021/11/21 08:00:54;;;;;;;9.55;1.73;;;7.00;99.90;;;;;;5116784;28;20051;-65
2021/11/21 08:03:20;;;;;;;8.13;1.50;;;7.00;99.90;;;;;;5124749;27;20047;-65
2021/11/21 08:05:46;;;;;;;9.10;1.58;;;6.90;99.90;;;;;;5122216;28;20043;-65
2021/11/21 08:08:12;;;;;;;15.77;2.17;;;6.90;99.90;;;;;;5126344;27;20050;-65
2021/11/21 08:10:38;;;;;;;14.23;1.90;;;6.90;99.90;;;;;;5139456;27;20035;-65
2021/11/21 08:13:04;;;;;;;7.25;1.77;;;6.90;99.90;;;;;;5120324;27;20058;-65
2021/11/21 08:15:30;;;;;;;13.30;1.88;;;6.90;99.90;;;;;;5135689;27;20040;-65
2021/11/21 08:17:56;;;;;;;10.65;1.52;;;7.00;99.90;;;;;;5117600;27;20111;-65
2021/11/21 08:20:22;;;;;;;16.52;2.05;;;7.00;99.90;;;;;;5127463;27;20144;-65
2021/11/21 08:22:48;;;;;;;8.73;2.35;;;7.00;99.90;;;;;;5125352;27;20040;-65
2021/11/21 08:25:14;;;;;;;14.68;2.30;;;7.10;99.90;;;;;;5130234;27;20333;-65
2021/11/21 08:27:40;;;;;;;10.65;2.38;;;7.10;99.90;;;;;;5132481;27;20055;-65
2021/11/21 08:30:08;;;;;;;16.33;2.20;;;7.10;99.90;;;;;;5127231;27;20078;-65
2021/11/21 08:32:34;;;;;;;13.02;2.17;;;7.20;99.90;;;;;;5116664;28;20484;-65
2021/11/21 08:35:00;;;;;;;12.73;1.73;;;7.10;99.90;;;;;;5126269;27;20039;-65
2021/11/21 08:37:25;;;;;;;10.73;1.60;;;7.20;99.90;;;;;;5141948;27;20042;-65
2021/11/21 08:39:51;;;;;;;14.80;3.13;;;7.20;99.90;;;;;;5141486;27;20077;-65
2021/11/21 08:42:17;;;;;;;16.10;2.25;;;7.20;99.90;;;;;;5117813;27;20487;-65
2021/11/21 08:44:43;;;;;;;14.25;2.45;;;7.20;99.90;;;;;;5144872;27;20039;-65
2021/11/21 08:47:10;;;;;;;18.25;2.38;;;7.20;99.90;;;;;;5144742;27;20394;-65
2021/11/21 08:49:37;;;;;;;11.07;2.03;;;7.20;99.90;;;;;;5145263;27;20047;-65
2021/11/21 08:52:04;;;;;;;12.77;2.13;;;7.30;99.90;;;;;;5121670;28;20043;-65
2021/11/21 08:54:30;;;;;;;17.95;3.13;;;7.30;99.90;;;;;;5114351;27;20058;-65
2021/11/21 08:56:56;;;;;;;11.30;1.92;;;7.30;99.90;;;;;;5119643;28;20044;-65
2021/11/21 08:59:21;;;;;;;7.93;1.83;;;7.30;99.90;;;;;;5144109;27;20053;-65
2021/11/21 09:01:48;;;;;;;10.13;1.65;;;7.40;99.90;;;;;;5120307;27;20083;-65
2021/11/21 09:04:14;;;;;;;10.60;2.85;;;7.50;99.90;;;;;;5113863;28;20051;-65
2021/11/21 09:06:40;;;;;;;8.88;1.60;;;7.50;99.90;;;;;;5114859;28;20127;-65
2021/11/21 09:09:06;;;;;;;11.80;2.15;;;7.60;99.90;;;;;;5118901;27;20051;-65
2021/11/21 09:11:35;;;;;;;14.68;2.42;;;7.70;99.90;;;;;;5112752;27;20044;-65
2021/11/21 09:14:03;;;;;;;9.43;1.70;;;7.80;99.90;;;;;;5142602;27;20043;-65
2021/11/21 09:16:28;;;;;;;10.57;1.65;;;7.90;99.90;;;;;;5115214;28;20051;-65
2021/11/21 09:18:54;;;;;;;10.00;1.85;;;8.00;99.90;;;;;;5124345;27;20064;-65
2021/11/21 09:21:20;;;;;;;13.60;2.05;;;8.00;99.90;;;;;;5144724;27;20039;-65
2021/11/21 09:23:45;;;;;;;13.20;2.55;;;8.10;99.90;;;;;;5123727;28;20059;-65
2021/11/21 09:26:11;;;;;;;11.65;1.77;;;8.10;99.90;;;;;;5118686;28;20074;-65
2021/11/21 09:28:37;;;;;;;11.80;1.90;;;8.20;99.90;;;;;;5121543;28;20048;-65
2021/11/21 09:31:03;;;;;;;9.05;1.77;;;8.20;99.90;;;;;;5106179;28;20135;-65
2021/11/21 09:33:29;;;;;;;7.55;1.80;;;8.30;99.90;;;;;;5105395;28;20047;-65
2021/11/21 09:35:55;;;;;;;16.02;2.83;;;8.40;99.90;;;;;;5113933;28;20572;-65
2021/11/21 09:38:21;;;;;;;10.43;1.75;;;8.40;99.90;;;;;;5114491;27;20046;-65
2021/11/21 09:40:50;;;;;;;14.38;2.50;;;8.40;99.90;;;;;;5118804;28;20104;-65
2021/11/21 09:43:16;;;;;;;12.38;1.80;;;8.50;99.90;;;;;;5116563;28;20039;-65
2021/11/21 09:45:42;;;;;;;9.48;2.50;;;8.60;99.90;;;;;;5111888;28;20073;-65
2021/11/21 09:48:08;;;;;;;7.13;1.73;;;8.60;99.90;;;;;;5119328;28;20050;-65
2021/11/21 09:50:38;;;;;;;10.95;1.83;;;8.70;99.90;;;;;;5111915;28;20047;-65
2021/11/21 09:53:04;;;;;;;9.50;2.17;;;8.80;99.90;;;;;;5108173;28;20051;-65
2021/11/21 09:55:30;;;;;;;10.05;1.60;;;8.80;99.90;;;;;;5108993;28;20075;-65
2021/11/21 09:57:57;;;;;;;8.57;1.80;;;8.90;99.90;;;;;;5117914;28;20047;-65
2021/11/21 10:00:25;;;;;;;7.60;2.05;;;8.90;99.90;;;;;;5115091;27;20118;-65
2021/11/21 10:03:08;;;;;;;11.98;1.75;;;9.00;99.90;;;;;;5115947;28;20047;-65
2021/11/21 10:05:39;;;;;;;9.65;1.77;;;9.10;99.90;;;;;;5118916;28;20043;-65
2021/11/21 10:08:12;;;;;;;8.43;1.65;;;9.20;99.90;;;;;;5116209;28;20047;-65
2021/11/21 10:11:03;;;;;;;8.23;1.30;;;9.20;99.90;;;;;;5110242;28;20122;-65
2021/11/21 10:13:42;;;;;;;11.57;2.22;;;9.20;99.90;;;;;;5106906;28;20252;-65
2021/11/21 10:16:19;;;;;;;6.68;1.48;;;9.30;99.90;;;;;;5108689;28;20035;-65
2021/11/21 10:18:46;;;;;;;7.20;1.80;;;9.30;99.90;;;;;;5113125;28;20036;-65
2021/11/21 10:21:12;;;;;;;12.27;1.65;;;9.40;99.90;;;;;;5114152;27;20039;-65
2021/11/21 10:23:38;;;;;;;8.15;1.45;;;9.50;99.90;;;;;;5117227;28;20040;-65
2021/11/21 10:26:04;;;;;;;12.95;2.08;;;9.60;99.90;;;;;;5109182;28;20048;-65
2021/11/21 10:28:32;;;;;;;7.68;1.13;;;9.70;99.90;;;;;;5101517;28;20108;-65
2021/11/21 10:31:03;;;;;;;14.82;1.50;;;9.70;99.90;;;;;;5121475;27;20050;-65
2021/11/21 10:33:38;;;;;;;12.70;2.72;;;9.80;99.90;;;;;;5147730;27;20050;-65
2021/11/21 10:36:05;;;;;;;7.10;1.52;;;9.80;99.90;;;;;;5128597;27;20118;-65
2021/11/21 10:38:37;;;;;;;6.57;1.50;;;9.80;99.90;;;;;;5121371;28;20112;-65
2021/11/21 10:41:20;;;;;;;10.80;1.55;;;9.90;99.90;;;;;;5122884;28;20055;-65
2021/11/21 10:43:50;;;;;;;5.85;1.05;;;9.90;99.90;;;;;;5108973;28;20135;-65
2021/11/21 10:46:33;;;;;;;11.15;1.88;;;10.00;99.90;;;;;;5119851;28;20044;-65
2021/11/21 10:49:18;;;;;;;7.05;1.30;;;9.90;99.90;;;;;;5146892;27;20123;-65
2021/11/21 10:51:45;;;;;;;6.03;1.27;;;9.80;99.90;;;;;;5132392;27;20074;-65
2021/11/21 10:54:28;;;;;;;10.18;1.55;;;9.80;99.90;;;;;;5146277;27;20104;-65
2021/11/21 10:56:58;;;;;;;8.57;1.88;;;9.80;99.90;;;;;;5110063;28;20055;-65
2021/11/21 10:59:48;;;;;;;8.68;1.50;;;9.80;99.90;;;;;;5127983;27;20047;-65
2021/11/21 11:02:18;;;;;;;8.07;1.63;;;9.80;99.90;;;;;;5112218;27;20120;-65
2021/11/21 11:05:00;;;;;;;7.85;3.53;;;9.80;99.90;;;;;;5122311;27;20052;-65
2021/11/21 11:07:26;;;;;;;6.38;1.33;;;9.90;99.90;;;;;;5142386;27;20043;-65
2021/11/21 11:09:54;;;;;;;8.38;1.10;;;10.00;99.90;;;;;;5125114;28;20056;-65
2021/11/21 11:12:21;;;;;;;10.07;1.52;;;10.10;99.90;;;;;;5143978;27;20045;-65
2021/11/21 11:14:48;;;;;;;8.25;1.88;;;10.00;99.90;;;;;;5118889;27;20098;-65
2021/11/21 11:17:14;;;;;;;14.85;2.05;;;10.10;99.90;;;;;;5133566;27;20047;-66
2021/11/21 11:19:40;;;;;;;6.80;1.45;;;10.20;99.90;;;;;;5132265;27;20047;-65
2021/11/21 11:22:06;;;;;;;11.70;1.90;;;10.20;99.90;;;;;;5122224;28;20048;-65
2021/11/21 11:24:39;;;;;;;9.15;2.08;;;10.30;99.90;;;;;;5132737;27;20047;-65
2021/11/21 11:27:14;;;;;;;9.38;1.48;;;10.30;99.90;;;;;;5138691;27;20113;-66
2021/11/21 11:29:45;;;;;;;12.88;2.03;;;10.30;99.90;;;;;;5107592;28;20063;-65
2021/11/21 11:32:46;;;;;;;10.55;1.70;;;10.50;99.90;;;;;;5117970;28;20082;-66
2021/11/21 11:35:18;;;;;;;7.68;1.48;;;10.50;99.90;;;;;;5104288;27;20039;-65
2021/11/21 11:37:45;;;;;;;7.97;1.38;;;10.60;99.90;;;;;;5106690;28;20122;-65
2021/11/21 11:40:30;;;;;;;10.02;1.65;;;10.60;99.90;;;;;;5130098;27;20036;-68
2021/11/21 11:43:24;;;;;;;7.32;1.58;;;10.50;99.90;;;;;;5117274;27;20050;-65
2021/11/21 11:45:53;;;;;;;6.30;0.98;;;10.30;99.90;;;;;;5107605;28;20107;-64
2021/11/21 11:48:45;;;;;;;7.03;1.40;;;10.10;99.90;;;;;;5115836;27;20056;-64
2021/11/21 11:51:31;;;;;;;7.68;1.45;;;9.90;99.90;;;;;;5111669;27;20374;-64
2021/11/21 11:54:01;;;;;;;5.68;1.17;;;9.80;99.90;;;;;;5123550;28;20061;-63
2021/11/21 11:56:45;;;;;;;6.20;1.30;;;9.90;99.90;;;;;;5124893;27;20046;-63
2021/11/21 11:59:32;;;;;;;6.05;1.20;;;10.00;99.90;;;;;;5146135;27;20036;-63
2021/11/21 12:01:59;;;;;;;8.40;1.10;;;10.00;99.90;;;;;;5107367;27;20456;-63
2021/11/21 12:04:26;;;;;;;7.32;1.20;;;10.10;99.90;;;;;;5126180;27;20039;-63
2021/11/21 12:06:56;;;;;;;4.68;1.40;;;10.10;99.90;;;;;;5123751;27;20062;-64
2021/11/21 12:09:29;;;;;;;4.97;1.10;;;10.10;99.90;;;;;;5122996;27;20047;-62
2021/11/21 12:12:12;;;;;;;7.82;1.70;;;10.10;99.90;;;;;;5125648;27;20043;-62
2021/11/21 12:14:39;;;;;;;4.63;1.20;;;10.20;99.90;;;;;;5140675;27;20062;-62
2021/11/21 12:17:05;;;;;;;8.93;1.40;;;10.30;99.90;;;;;;5121242;27;20110;-62
2021/11/21 12:19:41;;;;;;;8.27;1.73;;;10.30;99.90;;;;;;5141326;27;20058;-65
2021/11/21 12:22:34;;;;;;;8.45;1.20;;;10.40;99.90;;;;;;5123656;27;20039;-65
2021/11/21 12:25:04;;;;;;;5.72;1.63;;;10.40;99.90;;;;;;5140361;27;20054;-70
2021/11/21 12:27:31;;;;;;;;;;;10.50;99.90;;;;;;5145503;27;20089;-64
2021/11/21 12:30:07;;;;;;;9.02;1.67;;;10.80;99.90;;;;;;5126302;27;19927;-65
2021/11/21 12:32:43;;;;;;;7.03;1.17;;;11.10;99.90;;;;;;5121844;27;20051;-64
2021/11/21 12:35:28;;;;;;;8.95;1.20;;;11.20;99.90;;;;;;5117647;28;20040;-64
2021/11/21 12:37:59;;;;;;;4.75;0.82;;;11.60;99.90;;;;;;5126830;27;20099;-64
2021/11/21 12:40:35;;;;;;;6.68;0.90;;;11.80;99.90;;;;;;5108635;27;20046;-64
2021/11/21 12:43:09;;;;;;;4.88;0.95;;;11.60;99.90;;;;;;5127055;27;20077;-64
2021/11/21 12:45:38;;;;;;;8.00;1.15;;;11.60;99.90;;;;;;5114126;27;20035;-64
2021/11/21 12:48:05;;;;;;;6.47;1.58;;;11.50;99.90;;;;;;5120741;27;20085;-65
2021/11/21 12:50:39;;;;;;;6.82;1.10;;;11.40;99.90;;;;;;5116800;27;20046;-65
2021/11/21 12:53:19;;;;;;;6.18;1.30;;;11.30;99.90;;;;;;5137972;27;20046;-64
2021/11/21 12:55:45;;;;;;;;;;;11.40;99.90;;;;;;5117033;28;20039;-64